Time;durP1;ratioP1;P1;durP2;ratioP2;P2;SDS_P1;SDS_P2;PMS_P1;PMS_P2;Temp;Humidity;BMP_temperature;BMP_pressure;BME280_temperature;BME280_humidity;BME280_pressure;Samples;Min_cycle;Max_cycle;Signal;HPM_P1;HPM_P2
2021/09/06 00:00:44;;;;;;;8.73;7.50;;;15.20;97.90;;;;;;5054195;28;20626;-84
2021/09/06 00:03:19;;;;;;;9.50;8.00;;;15.10;98.50;;;;;;5053497;28;20633;-84
2021/09/06 00:05:53;;;;;;;9.97;8.97;;;15.10;98.60;;;;;;5069895;28;20629;-84
2021/09/06 00:08:22;;;;;;;10.87;7.70;;;15.00;99.30;;;;;;5069784;28;20673;-84
2021/09/06 00:11:01;;;;;;;11.80;10.13;;;15.10;99.30;;;;;;5073262;28;20616;-84
2021/09/06 00:13:32;;;;;;;9.13;8.27;;;15.00;99.50;;;;;;5069028;28;20712;-84
2021/09/06 00:15:59;;;;;;;10.43;8.17;;;14.90;99.50;;;;;;5053789;28;20614;-84
2021/09/06 00:18:27;;;;;;;9.27;8.47;;;15.00;99.20;;;;;;5067470;28;20649;-84
2021/09/06 00:20:57;;;;;;;9.07;8.17;;;14.90;99.20;;;;;;5054203;28;20626;-84
2021/09/06 00:23:27;;;;;;;9.30;7.80;;;14.90;98.70;;;;;;5063186;28;20679;-84
2021/09/06 00:25:54;;;;;;;8.57;7.67;;;14.90;98.60;;;;;;5063290;28;20625;-84
2021/09/06 00:28:21;;;;;;;9.47;8.67;;;14.90;99.00;;;;;;5053490;28;21516;-84
2021/09/06 00:30:49;;;;;;;11.40;8.67;;;14.70;99.60;;;;;;5071829;28;20614;-83
2021/09/06 00:33:18;;;;;;;9.90;8.60;;;14.60;99.90;;;;;;5063028;28;20672;-84
2021/09/06 00:35:47;;;;;;;8.97;8.10;;;14.60;99.90;;;;;;5061011;28;20674;-83
2021/09/06 00:38:16;;;;;;;9.37;8.37;;;14.60;99.90;;;;;;5072784;28;20673;-84
2021/09/06 00:40:44;;;;;;;9.90;8.90;;;14.60;99.80;;;;;;5066073;28;20626;-84
2021/09/06 00:43:11;;;;;;;9.60;8.70;;;14.60;99.90;;;;;;5054068;28;20630;-83
2021/09/06 00:45:41;;;;;;;11.03;8.40;;;14.60;99.90;;;;;;5057073;28;20613;-84
2021/09/06 00:48:10;;;;;;;9.90;8.27;;;14.50;99.90;;;;;;5052419;28;20613;-84
2021/09/06 00:50:37;;;;;;;12.87;8.27;;;14.50;99.90;;;;;;5069801;28;20629;-84
2021/09/06 00:53:05;;;;;;;9.17;8.27;;;14.50;99.90;;;;;;5062250;28;20626;-83
2021/09/06 00:55:32;;;;;;;8.80;7.67;;;14.50;99.70;;;;;;5053081;28;20646;-83
2021/09/06 00:57:59;;;;;;;8.63;7.83;;;14.40;99.90;;;;;;5062468;28;20689;-83
2021/09/06 01:00:26;;;;;;;10.33;7.73;;;14.50;99.30;;;;;;5066819;28;20621;-83
2021/09/06 01:02:53;;;;;;;9.17;8.17;;;14.40;99.90;;;;;;5049587;28;20654;-84
2021/09/06 01:05:22;;;;;;;8.97;8.27;;;14.40;99.90;;;;;;5052481;28;20622;-83
2021/09/06 01:07:53;;;;;;;9.13;8.23;;;14.40;99.90;;;;;;5052740;28;21293;-83
2021/09/06 01:10:22;;;;;;;10.60;8.50;;;14.40;99.90;;;;;;5052842;28;20626;-84
2021/09/06 01:12:51;;;;;;;9.67;8.73;;;14.40;99.90;;;;;;5067092;28;20999;-84
2021/09/06 01:15:20;;;;;;;9.27;8.33;;;14.30;99.90;;;;;;5054038;28;20634;-84
2021/09/06 01:17:48;;;;;;;10.43;9.23;;;14.30;99.90;;;;;;5057526;28;21221;-83
2021/09/06 01:20:16;;;;;;;9.27;8.37;;;14.40;99.90;;;;;;5059715;28;20994;-84
2021/09/06 01:22:47;;;;;;;9.33;8.43;;;14.30;99.90;;;;;;5057875;28;20634;-84
2021/09/06 01:25:18;;;;;;;8.83;8.03;;;14.30;99.90;;;;;;5062483;28;20621;-83
2021/09/06 01:27:49;;;;;;;9.90;8.90;;;14.30;99.90;;;;;;5070623;28;20634;-84
2021/09/06 01:30:17;;;;;;;10.87;8.73;;;14.20;99.90;;;;;;5072416;28;21032;-84
2021/09/06 01:32:45;;;;;;;10.47;9.40;;;14.20;99.90;;;;;;5060438;28;21058;-84
2021/09/06 01:35:15;;;;;;;12.10;9.30;;;14.20;99.90;;;;;;5071389;28;20679;-84
2021/09/06 01:37:43;;;;;;;9.80;9.00;;;14.20;99.90;;;;;;5071595;28;20665;-84
2021/09/06 01:40:12;;;;;;;10.43;9.40;;;14.20;99.90;;;;;;5058611;28;20999;-85
2021/09/06 01:42:40;;;;;;;10.27;9.27;;;14.10;99.90;;;;;;5059776;28;20641;-84
2021/09/06 01:45:10;;;;;;;9.03;8.20;;;14.20;99.90;;;;;;5052235;28;21202;-84
2021/09/06 01:47:38;;;;;;;10.00;9.10;;;14.10;99.90;;;;;;5059441;28;20632;-83
2021/09/06 01:50:10;;;;;;;9.73;8.57;;;14.00;99.90;;;;;;5072089;28;20675;-83
2021/09/06 01:52:41;;;;;;;12.90;9.10;;;14.00;99.90;;;;;;5067855;28;20674;-84
2021/09/06 01:55:09;;;;;;;10.73;9.60;;;14.00;99.90;;;;;;5062992;28;20613;-83
2021/09/06 01:57:37;;;;;;;10.60;9.60;;;14.00;99.90;;;;;;5066067;28;20672;-84
2021/09/06 02:00:06;;;;;;;9.60;8.70;;;13.90;99.90;;;;;;5062698;28;21190;-83
2021/09/06 02:02:35;;;;;;;10.47;9.13;;;13.90;99.90;;;;;;5067453;28;20644;-84
2021/09/06 02:05:04;;;;;;;10.33;9.33;;;13.90;99.90;;;;;;5071260;28;20632;-83
2021/09/06 02:07:33;;;;;;;11.50;9.53;;;13.90;99.90;;;;;;5067073;28;21291;-83
2021/09/06 02:10:01;;;;;;;10.97;9.93;;;13.90;99.90;;;;;;5066727;28;21213;-83
2021/09/06 02:12:30;;;;;;;11.67;10.17;;;13.80;99.90;;;;;;5062749;28;21625;-83
2021/09/06 02:14:59;;;;;;;12.00;10.80;;;13.80;99.90;;;;;;5051176;28;21509;-83
2021/09/06 02:17:27;;;;;;;11.93;10.47;;;13.70;99.90;;;;;;5064133;28;20683;-83
2021/09/06 02:19:56;;;;;;;11.57;10.47;;;13.70;99.90;;;;;;5062751;28;20701;-83
2021/09/06 02:22:24;;;;;;;12.00;10.73;;;13.70;99.90;;;;;;5069659;28;20632;-84
2021/09/06 02:24:52;;;;;;;10.90;9.80;;;13.70;99.90;;;;;;5052236;28;20636;-83
2021/09/06 02:27:22;;;;;;;15.30;11.53;;;13.60;99.90;;;;;;5057887;28;21099;-84
2021/09/06 02:29:51;;;;;;;10.67;9.60;;;13.60;99.90;;;;;;5054266;28;20644;-84
2021/09/06 02:32:19;;;;;;;11.00;9.50;;;13.50;99.90;;;;;;5068711;28;20714;-84
2021/09/06 02:34:47;;;;;;;10.60;9.60;;;13.60;99.90;;;;;;5056480;28;20736;-84
2021/09/06 02:37:16;;;;;;;11.60;10.50;;;13.60;99.90;;;;;;5050862;28;20675;-83
2021/09/06 02:39:44;;;;;;;10.53;9.43;;;13.70;99.90;;;;;;5066659;28;20632;-84
2021/09/06 02:42:12;;;;;;;12.73;10.90;;;13.70;99.90;;;;;;5051182;28;20665;-84
2021/09/06 02:44:40;;;;;;;10.90;9.90;;;13.70;99.90;;;;;;5050392;28;20629;-84
2021/09/06 02:47:09;;;;;;;10.37;9.27;;;13.70;99.90;;;;;;5050853;28;21200;-84
2021/09/06 02:49:38;;;;;;;12.00;9.97;;;13.70;99.90;;;;;;5070425;28;20642;-84
2021/09/06 02:52:07;;;;;;;12.63;10.10;;;13.60;99.90;;;;;;5070692;28;20635;-83
2021/09/06 02:54:39;;;;;;;10.63;9.53;;;13.60;99.90;;;;;;5070060;28;20617;-84
2021/09/06 02:57:08;;;;;;;13.03;9.90;;;13.60;99.90;;;;;;5066291;28;20689;-83
2021/09/06 02:59:37;;;;;;;10.73;9.50;;;13.60;99.90;;;;;;5070291;28;20615;-84
2021/09/06 03:02:07;;;;;;;11.60;10.37;;;13.50;99.90;;;;;;5052371;28;21045;-83
2021/09/06 03:04:36;;;;;;;9.80;8.80;;;13.40;99.90;;;;;;5050735;28;20626;-83
2021/09/06 03:07:06;;;;;;;10.53;9.43;;;13.30;99.90;;;;;;5050855;28;20614;-83
2021/09/06 03:09:33;;;;;;;11.47;10.33;;;13.30;99.90;;;;;;5052488;28;20632;-83
2021/09/06 03:12:03;;;;;;;11.80;10.60;;;13.30;99.90;;;;;;5049899;28;20637;-83
2021/09/06 03:14:30;;;;;;;10.30;9.20;;;13.30;99.90;;;;;;5050390;28;21478;-82
2021/09/06 03:16:58;;;;;;;12.50;11.30;;;13.20;99.90;;;;;;5050059;28;20609;-83
2021/09/06 03:19:26;;;;;;;9.57;8.67;;;13.10;99.90;;;;;;5069351;28;20769;-82
2021/09/06 03:21:53;;;;;;;11.53;10.33;;;13.10;99.90;;;;;;5049249;28;21252;-83
2021/09/06 03:24:21;;;;;;;10.73;9.73;;;13.20;99.90;;;;;;5048565;28;20638;-83
2021/09/06 03:26:48;;;;;;;10.83;9.73;;;13.10;99.90;;;;;;5054393;28;20620;-83
2021/09/06 03:29:16;;;;;;;11.73;9.90;;;13.20;99.90;;;;;;5050714;28;21035;-83
2021/09/06 03:31:43;;;;;;;9.33;8.43;;;13.20;99.90;;;;;;5066287;28;21269;-83
2021/09/06 03:34:10;;;;;;;10.77;9.10;;;13.10;99.90;;;;;;5051568;28;20627;-83
2021/09/06 03:36:37;;;;;;;8.83;8.00;;;13.10;99.90;;;;;;5051277;28;21243;-83
2021/09/06 03:39:04;;;;;;;10.30;9.00;;;13.10;99.90;;;;;;5050090;28;20729;-83
2021/09/06 03:41:33;;;;;;;10.90;9.77;;;13.00;99.90;;;;;;5067169;28;21014;-83
2021/09/06 03:44:00;;;;;;;10.70;9.60;;;13.00;99.90;;;;;;5053370;28;20613;-83
2021/09/06 03:46:30;;;;;;;11.23;10.23;;;13.00;99.90;;;;;;5051439;28;20623;-83
2021/09/06 03:48:57;;;;;;;11.30;10.20;;;12.90;99.90;;;;;;5065795;28;20631;-82
2021/09/06 03:51:23;;;;;;;10.73;9.73;;;12.90;99.90;;;;;;5061822;28;21254;-82
2021/09/06 03:53:50;;;;;;;10.20;9.10;;;12.80;99.90;;;;;;5061744;28;20622;-83
2021/09/06 03:56:17;;;;;;;12.07;10.20;;;12.80;99.90;;;;;;5050273;28;20616;-82
2021/09/06 03:58:44;;;;;;;11.53;10.20;;;12.80;99.90;;;;;;5062308;28;20724;-82
2021/09/06 04:01:11;;;;;;;11.50;10.30;;;12.70;99.90;;;;;;5057673;28;21165;-82
2021/09/06 04:03:40;;;;;;;10.03;9.03;;;12.80;99.90;;;;;;5059481;28;20649;-82
2021/09/06 04:06:07;;;;;;;10.10;9.13;;;12.70;99.90;;;;;;5069937;28;20642;-82
2021/09/06 04:08:34;;;;;;;10.83;9.70;;;12.80;99.90;;;;;;5056610;28;20683;-82
2021/09/06 04:11:03;;;;;;;15.43;10.70;;;12.70;99.90;;;;;;5050333;28;20643;-82
2021/09/06 04:13:31;;;;;;;12.13;10.93;;;12.70;99.90;;;;;;5061666;28;20637;-83
2021/09/06 04:16:00;;;;;;;12.67;11.37;;;12.60;99.90;;;;;;5070592;28;20678;-82
2021/09/06 04:18:32;;;;;;;10.97;9.87;;;12.60;99.90;;;;;;5057793;28;21254;-82
2021/09/06 04:21:00;;;;;;;12.03;10.83;;;12.60;99.90;;;;;;5049341;28;20695;-82
2021/09/06 04:23:27;;;;;;;11.70;10.50;;;12.60;99.90;;;;;;5055661;28;20618;-82
2021/09/06 04:25:55;;;;;;;11.00;9.93;;;12.60;99.90;;;;;;5071903;28;20630;-82
2021/09/06 04:28:22;;;;;;;12.13;10.97;;;12.50;99.90;;;;;;5063547;28;20691;-82
2021/09/06 04:30:49;;;;;;;16.13;10.37;;;12.60;99.90;;;;;;5063876;28;20676;-81
2021/09/06 04:33:16;;;;;;;12.33;10.90;;;12.50;99.90;;;;;;5061298;28;20669;-82
2021/09/06 04:35:43;;;;;;;15.20;11.20;;;12.50;99.90;;;;;;5062758;28;20699;-81
2021/09/06 04:38:11;;;;;;;12.43;11.17;;;12.60;99.90;;;;;;5065077;28;20667;-81
2021/09/06 04:40:38;;;;;;;12.50;11.00;;;12.60;99.90;;;;;;5048988;28;20673;-81
2021/09/06 04:43:05;;;;;;;12.50;11.20;;;12.60;99.90;;;;;;5054537;28;20713;-81
2021/09/06 04:45:32;;;;;;;12.10;10.90;;;12.50;99.90;;;;;;5054220;28;20605;-81
2021/09/06 04:47:59;;;;;;;13.20;11.80;;;12.60;99.90;;;;;;5057161;28;20634;-81
2021/09/06 04:50:27;;;;;;;11.73;10.63;;;12.60;99.90;;;;;;5070571;28;20623;-81
2021/09/06 04:52:56;;;;;;;14.00;10.30;;;12.60;99.90;;;;;;5052695;28;21270;-81
2021/09/06 04:55:24;;;;;;;11.17;10.17;;;12.60;99.90;;;;;;5077274;28;21189;-81
2021/09/06 04:57:54;;;;;;;14.70;11.30;;;12.50;99.90;;;;;;5052234;28;20629;-81
2021/09/06 05:00:22;;;;;;;13.17;10.80;;;12.40;99.90;;;;;;5052573;28;20712;-81
2021/09/06 05:02:49;;;;;;;12.43;11.10;;;12.40;99.90;;;;;;5065298;28;20692;-81
2021/09/06 05:05:16;;;;;;;12.47;11.27;;;12.40;99.90;;;;;;5056400;28;20721;-81
2021/09/06 05:07:43;;;;;;;10.00;9.00;;;12.40;99.90;;;;;;5060352;28;20648;-81
2021/09/06 05:10:10;;;;;;;13.33;11.07;;;12.30;99.90;;;;;;5069551;28;20629;-81
2021/09/06 05:12:38;;;;;;;12.90;9.50;;;12.30;99.90;;;;;;5067140;28;20623;-81
2021/09/06 05:15:06;;;;;;;11.87;10.30;;;12.40;99.90;;;;;;5048251;28;20661;-81
2021/09/06 05:17:34;;;;;;;11.53;10.30;;;12.40;99.90;;;;;;5052020;28;20711;-81
2021/09/06 05:20:01;;;;;;;10.60;9.57;;;12.40;99.90;;;;;;5052121;28;21241;-80
2021/09/06 05:22:27;;;;;;;10.77;9.67;;;12.50;99.90;;;;;;5054793;28;20711;-81
2021/09/06 05:24:55;;;;;;;14.20;10.47;;;12.50;99.90;;;;;;5064218;28;20630;-81
2021/09/06 05:27:23;;;;;;;11.37;10.20;;;12.60;99.90;;;;;;5052108;28;20619;-81
2021/09/06 05:29:51;;;;;;;13.33;10.87;;;12.70;99.90;;;;;;5060587;28;20629;-81
2021/09/06 05:32:18;;;;;;;14.27;12.07;;;12.80;99.90;;;;;;5062960;28;20619;-81
2021/09/06 05:34:45;;;;;;;13.80;10.37;;;12.80;99.90;;;;;;5059166;28;20636;-81
2021/09/06 05:37:12;;;;;;;11.90;10.70;;;12.90;99.90;;;;;;5052947;28;20653;-81
2021/09/06 05:39:39;;;;;;;12.77;11.43;;;13.00;99.90;;;;;;5048291;28;20671;-81
2021/09/06 05:42:06;;;;;;;13.37;11.73;;;13.20;99.90;;;;;;5052145;28;20976;-81
2021/09/06 05:44:33;;;;;;;15.50;11.60;;;13.20;99.90;;;;;;5049124;28;20627;-81
2021/09/06 05:47:02;;;;;;;13.63;11.80;;;13.30;99.90;;;;;;5057800;28;20622;-80
2021/09/06 05:49:28;;;;;;;17.30;11.33;;;13.30;99.90;;;;;;5071500;28;20637;-81
2021/09/06 05:51:55;;;;;;;13.10;11.00;;;13.40;99.90;;;;;;5071245;28;20619;-81
2021/09/06 05:54:23;;;;;;;10.80;9.80;;;13.40;99.90;;;;;;5053808;28;20626;-81
2021/09/06 05:56:50;;;;;;;11.57;10.37;;;13.40;99.90;;;;;;5051474;28;20604;-81
2021/09/06 05:59:16;;;;;;;12.47;11.17;;;13.50;99.90;;;;;;5051279;28;21032;-80
2021/09/06 06:01:43;;;;;;;12.97;10.97;;;13.60;99.90;;;;;;5053538;28;20686;-80
2021/09/06 06:04:12;;;;;;;13.90;11.57;;;13.60;99.90;;;;;;5068977;28;20613;-80
2021/09/06 06:06:39;;;;;;;15.63;12.07;;;13.60;99.90;;;;;;5071497;28;20604;-80
2021/09/06 06:09:06;;;;;;;15.50;11.93;;;13.60;99.90;;;;;;5051153;28;21547;-80
2021/09/06 06:11:33;;;;;;;14.10;12.60;;;13.70;99.90;;;;;;5051002;28;20602;-81
2021/09/06 06:14:00;;;;;;;14.80;13.03;;;13.80;99.90;;;;;;5059086;28;20694;-80
2021/09/06 06:16:27;;;;;;;16.23;12.00;;;13.90;99.90;;;;;;5071370;28;20602;-81
2021/09/06 06:18:54;;;;;;;16.27;12.73;;;14.00;99.90;;;;;;5053767;28;20741;-80
2021/09/06 06:21:22;;;;;;;14.90;13.10;;;14.20;99.90;;;;;;5058236;28;20667;-81
2021/09/06 06:23:49;;;;;;;15.17;12.57;;;14.40;99.90;;;;;;5065439;28;20618;-80
2021/09/06 06:26:16;;;;;;;16.53;14.00;;;14.60;99.90;;;;;;5059636;28;20626;-81
2021/09/06 06:28:43;;;;;;;14.97;13.27;;;14.70;99.90;;;;;;5051968;28;20630;-81
2021/09/06 06:31:10;;;;;;;15.33;12.93;;;14.80;99.90;;;;;;5066356;28;20669;-83
2021/09/06 06:33:37;;;;;;;15.40;13.03;;;14.90;99.90;;;;;;5060757;28;20665;-83
2021/09/06 06:36:05;;;;;;;14.60;12.30;;;15.00;99.90;;;;;;5065362;28;20626;-83
2021/09/06 06:38:34;;;;;;;18.10;13.73;;;15.10;99.90;;;;;;5053902;28;20648;-83
2021/09/06 06:41:02;;;;;;;16.20;13.97;;;15.20;99.90;;;;;;5070401;28;20682;-83
2021/09/06 06:43:29;;;;;;;15.90;13.83;;;15.40;99.90;;;;;;5070710;28;20620;-82
2021/09/06 06:45:57;;;;;;;13.67;11.33;;;15.50;99.90;;;;;;5070220;28;20628;-84
2021/09/06 06:48:23;;;;;;;15.40;11.30;;;15.60;99.90;;;;;;5070887;28;20622;-83
2021/09/06 06:50:51;;;;;;;21.77;11.30;;;15.70;99.90;;;;;;5069987;28;20606;-82
2021/09/06 06:53:17;;;;;;;12.40;10.90;;;15.70;99.90;;;;;;5050193;28;20629;-82
2021/09/06 06:55:46;;;;;;;16.63;11.47;;;15.90;99.90;;;;;;5051804;28;20672;-82
2021/09/06 06:58:13;;;;;;;16.20;11.80;;;15.90;99.90;;;;;;5069673;28;20954;-82
2021/09/06 07:00:40;;;;;;;12.20;10.90;;;16.00;99.90;;;;;;5069406;28;20722;-81
2021/09/06 07:03:07;;;;;;;12.70;11.30;;;16.20;99.90;;;;;;5064374;28;20721;-82
2021/09/06 07:05:34;;;;;;;11.63;10.40;;;16.20;99.90;;;;;;5059681;28;20622;-82
2021/09/06 07:08:01;;;;;;;11.67;10.47;;;16.50;99.90;;;;;;5067668;28;20680;-82
2021/09/06 07:10:28;;;;;;;13.00;9.63;;;16.60;99.90;;;;;;5063429;28;21255;-82
2021/09/06 07:12:56;;;;;;;13.57;10.50;;;16.80;99.70;;;;;;5069121;28;20624;-83
2021/09/06 07:15:23;;;;;;;11.50;10.30;;;16.90;99.90;;;;;;5069948;28;20655;-83
2021/09/06 07:17:50;;;;;;;10.40;9.30;;;17.00;99.10;;;;;;5062503;28;20676;-83
2021/09/06 07:20:17;;;;;;;11.00;9.90;;;17.00;98.70;;;;;;5056190;28;20673;-83
2021/09/06 07:22:44;;;;;;;11.67;10.47;;;17.10;98.90;;;;;;5070385;28;20609;-82
2021/09/06 07:25:11;;;;;;;10.80;9.70;;;17.40;97.80;;;;;;5069492;28;21244;-83
2021/09/06 07:27:38;;;;;;;9.80;8.80;;;17.40;97.80;;;;;;5059929;28;20622;-82
2021/09/06 07:30:08;;;;;;;13.40;10.10;;;17.60;98.20;;;;;;5065652;28;20614;-83
2021/09/06 07:32:35;;;;;;;11.40;9.87;;;17.60;98.30;;;;;;5063087;28;20944;-82
2021/09/06 07:35:02;;;;;;;10.20;9.20;;;17.60;98.10;;;;;;5066638;28;20620;-83
2021/09/06 07:37:30;;;;;;;10.60;9.60;;;17.50;97.60;;;;;;5067400;28;20634;-82
2021/09/06 07:39:57;;;;;;;9.07;8.10;;;17.70;97.30;;;;;;5068587;28;20732;-83
2021/09/06 07:42:24;;;;;;;10.10;8.63;;;17.80;97.50;;;;;;5070514;28;20641;-82
2021/09/06 07:44:51;;;;;;;9.33;8.43;;;17.70;97.40;;;;;;5069917;28;20676;-82
2021/09/06 07:47:20;;;;;;;12.13;8.57;;;18.00;97.20;;;;;;5070160;28;20647;-83
2021/09/06 07:49:49;;;;;;;11.23;10.00;;;18.20;96.90;;;;;;5070519;28;20615;-83
2021/09/06 07:52:16;;;;;;;9.50;8.50;;;18.20;96.60;;;;;;5064384;28;21561;-82
2021/09/06 07:54:43;;;;;;;10.10;7.80;;;18.40;96.20;;;;;;5070592;28;20679;-83
2021/09/06 07:57:10;;;;;;;11.53;8.73;;;18.50;95.10;;;;;;5082703;28;21205;-83
2021/09/06 07:59:37;;;;;;;9.60;7.60;;;18.60;95.20;;;;;;5071033;28;21570;-83
2021/09/06 08:02:04;;;;;;;9.60;8.33;;;18.80;93.50;;;;;;5073790;28;20627;-82
2021/09/06 08:04:32;;;;;;;8.00;7.30;;;18.80;93.00;;;;;;5075251;28;20617;-83
2021/09/06 08:07:00;;;;;;;8.33;6.87;;;19.00;92.80;;;;;;5071038;28;20664;-83
2021/09/06 08:09:27;;;;;;;8.57;7.57;;;18.90;92.70;;;;;;5075183;28;20620;-82
2021/09/06 08:11:56;;;;;;;7.90;7.20;;;19.20;92.20;;;;;;5075153;28;21153;-84
2021/09/06 08:14:23;;;;;;;7.80;7.10;;;19.20;90.70;;;;;;5075336;28;20609;-81
2021/09/06 08:16:50;;;;;;;8.90;8.00;;;19.30;91.50;;;;;;5074708;28;20612;-82
2021/09/06 08:19:17;;;;;;;7.90;7.20;;;19.50;91.20;;;;;;5074056;28;20663;-82
2021/09/06 08:21:46;;;;;;;9.00;8.10;;;19.50;90.60;;;;;;5054637;28;20676;-82
2021/09/06 08:24:14;;;;;;;9.60;7.00;;;19.50;90.00;;;;;;5054207;28;20625;-82
2021/09/06 08:26:42;;;;;;;8.47;7.53;;;19.70;90.60;;;;;;5069796;28;20620;-81
2021/09/06 08:29:09;;;;;;;8.37;7.57;;;19.70;90.20;;;;;;5054617;28;20622;-82
2021/09/06 08:31:37;;;;;;;8.73;7.90;;;19.80;90.00;;;;;;5069031;28;20676;-82
2021/09/06 08:34:04;;;;;;;7.53;6.80;;;20.00;90.80;;;;;;5055156;28;20701;-82
2021/09/06 08:36:30;;;;;;;8.50;7.80;;;20.10;90.10;;;;;;5054582;28;20642;-85
2021/09/06 08:38:59;;;;;;;9.20;8.20;;;20.10;90.00;;;;;;5054266;28;20628;-85
2021/09/06 08:41:26;;;;;;;8.57;7.63;;;20.10;90.70;;;;;;5051276;28;20676;-83
2021/09/06 08:43:53;;;;;;;11.30;6.97;;;20.10;90.50;;;;;;5057319;28;21215;-84
2021/09/06 08:46:23;;;;;;;8.30;7.27;;;20.20;90.30;;;;;;5071817;28;20632;-82
2021/09/06 08:48:50;;;;;;;9.50;7.00;;;20.20;90.60;;;;;;5072929;28;21219;-82
2021/09/06 08:51:18;;;;;;;7.63;6.93;;;20.20;91.10;;;;;;5073607;28;20670;-83
2021/09/06 08:53:45;;;;;;;9.47;7.60;;;20.20;90.60;;;;;;5072008;28;21143;-83
2021/09/06 08:56:13;;;;;;;8.50;7.70;;;20.30;90.00;;;;;;5056351;28;21473;-83
2021/09/06 08:58:41;;;;;;;9.27;8.13;;;20.60;89.40;;;;;;5069945;28;20605;-82
2021/09/06 09:01:08;;;;;;;9.43;7.80;;;20.80;89.90;;;;;;5075009;28;20772;-82
2021/09/06 09:03:35;;;;;;;7.93;7.13;;;20.90;88.90;;;;;;5074172;28;20617;-82
2021/09/06 09:06:03;;;;;;;7.20;6.53;;;20.90;89.40;;;;;;5074960;28;20622;-83
2021/09/06 09:08:31;;;;;;;7.73;7.03;;;21.10;89.60;;;;;;5073845;28;20637;-82
2021/09/06 09:11:00;;;;;;;8.80;6.73;;;21.20;86.50;;;;;;5074996;28;20625;-83
2021/09/06 09:13:34;;;;;;;7.50;6.70;;;21.30;85.90;;;;;;5074804;28;21228;-85
2021/09/06 09:16:02;;;;;;;8.10;7.30;;;21.40;84.80;;;;;;5074863;28;20626;-82
2021/09/06 09:18:31;;;;;;;8.53;7.73;;;21.50;83.00;;;;;;5073776;28;20654;-82
2021/09/06 09:21:00;;;;;;;8.37;7.57;;;21.50;83.20;;;;;;5071886;28;20654;-84
2021/09/06 09:23:38;;;;;;;7.37;6.77;;;21.40;85.80;;;;;;5072504;28;20655;-82
2021/09/06 09:26:06;;;;;;;13.13;8.30;;;21.70;82.60;;;;;;5073794;28;20617;-83
2021/09/06 09:28:38;;;;;;;7.33;6.47;;;21.80;79.60;;;;;;5056761;28;20621;-83
2021/09/06 09:31:08;;;;;;;7.57;6.87;;;21.90;77.50;;;;;;5054423;28;20657;-82
2021/09/06 09:33:48;;;;;;;8.70;6.87;;;22.00;77.00;;;;;;5062309;28;20649;-82
2021/09/06 09:36:27;;;;;;;10.80;6.90;;;22.10;73.90;;;;;;5073352;28;20627;-83
2021/09/06 09:39:05;;;;;;;8.47;7.67;;;22.20;74.20;;;;;;5074999;28;20608;-83
2021/09/06 09:41:32;;;;;;;6.63;5.80;;;22.30;74.60;;;;;;5074704;28;20621;-83
2021/09/06 09:44:11;;;;;;;7.80;7.10;;;22.30;75.50;;;;;;5073450;28;20620;-83
2021/09/06 09:46:37;;;;;;;8.53;6.97;;;22.40;75.30;;;;;;5073524;28;20622;-82
2021/09/06 09:49:12;;;;;;;7.77;6.97;;;22.50;73.90;;;;;;5073812;28;20977;-83
2021/09/06 09:51:39;;;;;;;7.43;6.83;;;22.60;74.10;;;;;;5073249;28;20656;-84
2021/09/06 09:54:07;;;;;;;8.50;7.20;;;22.70;73.20;;;;;;5069826;28;20678;-82
2021/09/06 09:56:34;;;;;;;8.40;7.70;;;22.80;73.30;;;;;;5046159;28;20655;-82
2021/09/06 09:59:02;;;;;;;8.43;7.60;;;23.00;72.10;;;;;;5056838;28;20630;-83
2021/09/06 10:01:38;;;;;;;7.63;6.83;;;23.10;71.30;;;;;;5072804;28;20662;-83
2021/09/06 10:04:07;;;;;;;16.90;8.00;;;23.10;71.10;;;;;;5074394;28;20623;-83
2021/09/06 10:06:36;;;;;;;7.80;7.10;;;23.20;72.10;;;;;;5074870;28;21237;-84
2021/09/06 10:09:03;;;;;;;9.67;8.20;;;23.20;71.40;;;;;;5073249;28;20631;-83
2021/09/06 10:11:38;;;;;;;7.87;7.07;;;23.40;71.30;;;;;;5072103;28;20627;-83
2021/09/06 10:14:16;;;;;;;8.03;7.33;;;23.50;70.80;;;;;;5074123;28;21170;-82
2021/09/06 10:16:44;;;;;;;8.30;7.50;;;23.60;70.90;;;;;;5069426;28;21030;-81
2021/09/06 10:19:15;;;;;;;9.03;8.23;;;23.80;69.00;;;;;;5063810;28;20994;-82
2021/09/06 10:22:02;;;;;;;8.20;7.40;;;23.80;68.30;;;;;;5069716;28;21134;-84
2021/09/06 10:24:31;;;;;;;7.53;6.83;;;23.80;68.60;;;;;;5058312;28;20629;-86
2021/09/06 10:27:05;;;;;;;9.67;7.57;;;23.80;69.70;;;;;;5066796;28;21224;-84
2021/09/06 10:29:33;;;;;;;8.03;7.33;;;23.90;68.90;;;;;;5066602;28;20620;-85
2021/09/06 10:32:03;;;;;;;9.23;8.33;;;24.00;70.50;;;;;;5071625;28;20644;-84
2021/09/06 10:34:31;;;;;;;7.83;7.07;;;24.00;70.90;;;;;;5065852;28;20644;-86
2021/09/06 10:37:04;;;;;;;7.93;7.30;;;24.00;69.40;;;;;;5065588;28;21190;-81
2021/09/06 10:39:33;;;;;;;9.07;8.17;;;24.10;68.50;;;;;;5072595;28;20613;-83
2021/09/06 10:42:06;;;;;;;8.30;7.60;;;24.20;67.40;;;;;;5072432;28;20659;-84
2021/09/06 10:44:38;;;;;;;9.67;8.43;;;24.20;67.90;;;;;;5072458;28;20631;-82
2021/09/06 10:47:12;;;;;;;8.63;7.93;;;24.20;67.30;;;;;;5071411;28;20649;-82
2021/09/06 10:49:42;;;;;;;8.83;8.03;;;24.30;70.10;;;;;;5071568;28;20650;-82
2021/09/06 10:52:09;;;;;;;7.57;6.87;;;24.40;68.50;;;;;;5070480;28;20602;-82
2021/09/06 10:54:38;;;;;;;8.60;7.90;;;24.50;67.90;;;;;;5072379;28;20616;-84
2021/09/06 10:57:07;;;;;;;8.43;7.63;;;24.50;66.00;;;;;;5072931;28;20629;-83
2021/09/06 10:59:35;;;;;;;8.63;7.93;;;24.70;64.80;;;;;;5063658;28;20637;-83
2021/09/06 11:02:06;;;;;;;8.73;7.87;;;24.70;65.10;;;;;;5063321;28;20609;-83
2021/09/06 11:04:35;;;;;;;8.97;8.17;;;24.80;65.40;;;;;;5086525;28;20707;-84
2021/09/06 11:07:04;;;;;;;9.20;8.40;;;24.90;64.40;;;;;;5068447;28;20649;-83
2021/09/06 11:09:34;;;;;;;9.07;8.33;;;24.80;65.70;;;;;;5074661;28;21020;-84
2021/09/06 11:12:03;;;;;;;8.23;7.43;;;24.60;67.00;;;;;;5073556;28;21213;-84
2021/09/06 11:14:35;;;;;;;10.00;8.10;;;24.70;69.80;;;;;;5073148;28;20605;-84
2021/09/06 11:17:02;;;;;;;8.63;7.93;;;24.90;65.20;;;;;;5074426;28;20614;-84
2021/09/06 11:19:30;;;;;;;9.00;8.20;;;25.10;61.60;;;;;;5074270;28;20694;-82
2021/09/06 11:22:02;;;;;;;8.37;7.67;;;25.10;62.00;;;;;;5073063;28;20675;-85
2021/09/06 11:24:29;;;;;;;8.87;8.10;;;25.10;62.20;;;;;;5073693;28;20609;-83
2021/09/06 11:26:55;;;;;;;8.57;7.77;;;25.20;62.60;;;;;;5073411;28;20625;-83
2021/09/06 11:29:22;;;;;;;8.43;7.73;;;25.30;61.20;;;;;;5073510;28;21154;-83
2021/09/06 11:31:50;;;;;;;9.27;8.10;;;25.40;59.80;;;;;;5073906;28;20650;-83
2021/09/06 11:34:23;;;;;;;9.33;8.40;;;25.40;62.00;;;;;;5053611;28;20607;-83
2021/09/06 11:36:50;;;;;;;7.50;6.80;;;25.70;61.30;;;;;;5054376;28;20622;-83
2021/09/06 11:39:20;;;;;;;8.27;7.53;;;25.50;58.90;;;;;;5057900;28;20626;-85
2021/09/06 11:41:48;;;;;;;8.00;7.30;;;25.50;58.70;;;;;;5073656;28;21052;-85
2021/09/06 11:44:18;;;;;;;8.30;7.50;;;25.90;57.80;;;;;;5073260;28;20644;-84
2021/09/06 11:46:45;;;;;;;7.20;6.70;;;25.90;57.70;;;;;;5073653;28;20618;-84
2021/09/06 11:49:18;;;;;;;8.67;7.87;;;26.10;56.80;;;;;;5074057;28;20601;-83
2021/09/06 11:51:45;;;;;;;7.37;6.67;;;26.10;58.30;;;;;;5074097;28;20632;-84
2021/09/06 11:54:14;;;;;;;8.50;7.80;;;26.00;57.40;;;;;;5074069;28;20617;-85
2021/09/06 11:56:42;;;;;;;8.20;7.50;;;26.10;57.80;;;;;;5074075;28;20614;-84
2021/09/06 11:59:10;;;;;;;9.20;8.33;;;26.10;57.40;;;;;;5073265;28;20614;-86
2021/09/06 12:01:38;;;;;;;8.50;7.80;;;26.10;58.50;;;;;;5073688;28;21503;-85
2021/09/06 12:04:06;;;;;;;9.60;8.70;;;25.80;59.40;;;;;;5073555;28;20671;-85
2021/09/06 12:06:33;;;;;;;8.80;8.00;;;25.70;58.60;;;;;;5074016;28;20617;-86
2021/09/06 12:09:01;;;;;;;9.30;8.50;;;25.80;59.70;;;;;;5073762;28;20664;-86
2021/09/06 12:11:36;;;;;;;8.13;7.33;;;25.50;60.00;;;;;;5073755;28;20657;-85
2021/09/06 12:14:06;;;;;;;9.00;8.10;;;25.50;59.90;;;;;;5070962;28;20620;-85
2021/09/06 12:16:34;;;;;;;8.17;7.47;;;25.40;61.40;;;;;;5066443;28;21253;-86
2021/09/06 12:19:02;;;;;;;7.90;7.10;;;25.40;62.80;;;;;;5055168;28;20630;-85
2021/09/06 12:21:30;;;;;;;10.33;7.33;;;25.40;58.00;;;;;;5068346;28;21229;-84
2021/09/06 12:24:01;;;;;;;8.83;8.03;;;25.80;58.10;;;;;;5071952;28;20614;-86
2021/09/06 12:26:39;;;;;;;8.17;7.37;;;25.70;59.30;;;;;;5069735;28;20628;-84
2021/09/06 12:29:08;;;;;;;7.07;6.57;;;25.60;59.60;;;;;;5055637;28;20625;-84
2021/09/06 12:31:42;;;;;;;7.50;6.73;;;25.70;59.10;;;;;;5072290;28;20633;-86
2021/09/06 12:34:10;;;;;;;8.77;8.00;;;25.70;57.90;;;;;;5070203;28;20643;-86
2021/09/06 12:36:37;;;;;;;9.10;8.20;;;25.90;57.60;;;;;;5073157;28;20683;-87
2021/09/06 12:39:05;;;;;;;7.93;7.10;;;25.70;56.50;;;;;;5069809;28;20621;-87
2021/09/06 12:41:31;;;;;;;7.97;7.23;;;25.70;58.80;;;;;;5067291;28;20768;-84
2021/09/06 12:43:59;;;;;;;8.20;7.17;;;25.60;59.80;;;;;;5071759;28;20620;-86